Time;durP1;ratioP1;P1;durP2;ratioP2;P2;SDS_P1;SDS_P2;PMS_P1;PMS_P2;Temp;Humidity;BMP_temperature;BMP_pressure;BME280_temperature;BME280_humidity;BME280_pressure;Samples;Min_cycle;Max_cycle;Signal;HPM_P1;HPM_P2
2022/03/20 00:02:20;;;;;;;12.43;4.82;;;;;;;4.69;62.07;103275.84;5049953;28;20072;-72
2022/03/20 00:04:45;;;;;;;8.95;4.32;;;;;;;4.68;61.93;103275.81;5050714;28;20062;-72
2022/03/20 00:07:11;;;;;;;7.82;4.20;;;;;;;4.66;61.95;103265.41;5051107;28;20028;-73
2022/03/20 00:09:38;;;;;;;9.32;4.40;;;;;;;4.64;61.92;103250.66;5054019;28;20033;-72
2022/03/20 00:12:04;;;;;;;8.88;4.57;;;;;;;4.62;61.72;103254.91;5054407;28;20383;-72
2022/03/20 00:14:29;;;;;;;11.15;4.55;;;;;;;4.59;62.82;103249.59;5053511;28;20048;-72
2022/03/20 00:16:54;;;;;;;9.20;4.82;;;;;;;4.61;62.09;103245.34;5054301;28;20491;-72
2022/03/20 00:19:19;;;;;;;10.43;5.13;;;;;;;4.62;62.51;103250.59;5054149;28;20028;-72
2022/03/20 00:21:45;;;;;;;9.88;5.05;;;;;;;4.61;62.57;103242.78;5053670;28;20021;-72
2022/03/20 00:24:10;;;;;;;11.35;5.38;;;;;;;4.60;62.71;103244.47;5054352;28;20021;-72
2022/03/20 00:26:39;;;;;;;11.40;5.18;;;;;;;4.57;62.74;103236.59;5054295;28;20488;-72
2022/03/20 00:29:05;;;;;;;10.70;5.00;;;;;;;4.53;63.14;103234.72;5053731;28;20028;-73
2022/03/20 00:31:32;;;;;;;10.10;5.38;;;;;;;4.51;63.37;103233.78;5053679;28;20384;-72
2022/03/20 00:33:58;;;;;;;9.60;5.00;;;;;;;4.46;63.36;103233.59;5053989;28;20025;-72
2022/03/20 00:36:23;;;;;;;11.40;5.63;;;;;;;4.41;63.99;103217.06;5053282;28;20025;-72
2022/03/20 00:38:48;;;;;;;8.70;5.15;;;;;;;4.36;63.56;103216.00;5053897;28;20028;-72
2022/03/20 00:41:13;;;;;;;11.20;5.47;;;;;;;4.33;64.62;103208.13;5053964;28;20024;-72
2022/03/20 00:43:39;;;;;;;11.05;5.85;;;;;;;4.31;64.71;103203.69;5052852;28;20025;-72
2022/03/20 00:46:04;;;;;;;8.95;5.78;;;;;;;4.24;64.74;103194.81;5054077;28;20017;-72
2022/03/20 00:48:29;;;;;;;11.38;6.28;;;;;;;4.21;64.75;103189.53;5053538;28;20035;-72
2022/03/20 00:50:55;;;;;;;14.77;6.32;;;;;;;4.18;65.23;103187.72;5053027;28;20068;-72
2022/03/20 00:53:20;;;;;;;10.25;6.45;;;;;;;4.17;65.16;103196.28;5053654;28;20021;-72
2022/03/20 00:55:45;;;;;;;12.57;6.18;;;;;;;4.14;65.13;103190.13;5053785;28;20024;-72
2022/03/20 00:58:12;;;;;;;9.63;6.60;;;;;;;4.09;65.25;103186.50;5052608;28;20021;-72
2022/03/20 01:00:37;;;;;;;12.50;6.95;;;;;;;4.06;65.66;103183.78;5053438;28;20021;-72
2022/03/20 01:03:02;;;;;;;14.40;6.85;;;;;;;3.98;65.96;103179.16;5054010;28;20090;-72
2022/03/20 01:05:28;;;;;;;10.75;7.05;;;;;;;3.96;66.48;103190.25;5052703;28;20021;-72
2022/03/20 01:07:53;;;;;;;12.35;6.75;;;;;;;3.93;66.09;103178.09;5053370;28;20061;-72
2022/03/20 01:10:18;;;;;;;14.90;7.10;;;;;;;3.87;66.09;103177.84;5053329;28;20052;-72
2022/03/20 01:12:44;;;;;;;15.07;7.47;;;;;;;3.80;66.41;103173.25;5052427;28;20063;-72
2022/03/20 01:15:12;;;;;;;16.40;7.65;;;;;;;3.76;66.97;103168.78;5053397;28;20033;-72
2022/03/20 01:17:38;;;;;;;16.35;7.72;;;;;;;3.71;66.81;103165.13;5052296;28;20025;-72
2022/03/20 01:20:05;;;;;;;14.23;7.78;;;;;;;3.69;66.50;103166.75;5052825;28;20468;-72
2022/03/20 01:22:31;;;;;;;12.95;7.65;;;;;;;3.64;67.24;103166.56;5053096;28;20041;-72
2022/03/20 01:24:56;;;;;;;16.00;7.60;;;;;;;3.61;67.83;103158.69;5052437;28;20039;-72
2022/03/20 01:27:21;;;;;;;13.45;7.82;;;;;;;3.54;67.66;103146.38;5052902;28;20025;-72
2022/03/20 01:29:46;;;;;;;16.67;8.90;;;;;;;3.56;67.67;103149.00;5052681;28;20384;-72
2022/03/20 01:32:12;;;;;;;16.02;9.00;;;;;;;3.51;67.82;103144.53;5052433;28;20485;-72
2022/03/20 01:34:38;;;;;;;15.43;8.38;;;;;;;3.53;68.08;103147.16;5052756;28;20078;-72
2022/03/20 01:37:04;;;;;;;15.15;8.90;;;;;;;3.50;68.21;103132.47;5053460;28;20036;-72
2022/03/20 01:39:29;;;;;;;14.63;8.63;;;;;;;3.44;68.71;103129.63;5051893;28;20025;-72
2022/03/20 01:41:55;;;;;;;15.52;8.45;;;;;;;3.39;68.32;103117.34;5052810;28;20029;-72
2022/03/20 01:44:29;;;;;;;15.27;9.30;;;;;;;3.40;68.12;103125.16;5052544;28;20036;-72
2022/03/20 01:46:54;;;;;;;19.98;9.30;;;;;;;3.32;68.41;103118.78;5051620;28;20037;-72
2022/03/20 01:49:19;;;;;;;18.23;10.35;;;;;;;3.32;68.44;103118.78;5052746;28;20033;-72
2022/03/20 01:54:30;;;;;;;;;;;;;;;3.27;68.21;103108.28;5052106;28;20124;-72
2022/03/20 01:56:55;;;;;;;20.70;10.88;;;;;;;3.28;68.00;103104.00;5052367;28;19913;-72
2022/03/20 01:59:21;;;;;;;20.40;10.50;;;;;;;3.22;68.19;103107.19;5052516;28;20029;-72
2022/03/20 02:01:46;;;;;;;18.73;11.57;;;;;;;3.21;68.87;103102.84;5051513;28;20136;-72
2022/03/20 02:04:13;;;;;;;22.10;11.85;;;;;;;3.19;68.52;103099.31;5052423;28;20013;-72
2022/03/20 02:06:41;;;;;;;22.55;13.10;;;;;;;3.20;68.05;103089.88;5052290;28;20102;-72
2022/03/20 02:09:06;;;;;;;24.42;14.43;;;;;;;3.24;67.93;103087.53;5051671;28;20079;-72
2022/03/20 02:11:32;;;;;;;21.63;14.35;;;;;;;3.22;67.92;103085.69;5052040;28;20017;-72
2022/03/20 02:13:58;;;;;;;26.75;14.07;;;;;;;3.20;67.48;103077.88;5051582;28;20025;-72
2022/03/20 02:16:23;;;;;;;24.52;14.68;;;;;;;3.18;67.34;103076.06;5052108;28;20029;-71
2022/03/20 02:18:48;;;;;;;24.70;14.98;;;;;;;3.12;67.41;103068.94;5051906;28;20039;-72
2022/03/20 02:21:15;;;;;;;25.02;14.55;;;;;;;3.11;67.13;103074.06;5051625;28;20045;-72
2022/03/20 02:23:44;;;;;;;29.67;16.05;;;;;;;3.12;67.15;103068.94;5052125;28;20036;-72
2022/03/20 02:26:10;;;;;;;26.20;16.80;;;;;;;3.12;67.37;103068.06;5050960;28;20031;-72
2022/03/20 02:28:35;;;;;;;28.08;15.70;;;;;;;3.10;67.09;103067.13;5051558;28;20033;-72
2022/03/20 02:31:01;;;;;;;24.10;15.65;;;;;;;3.09;67.26;103067.94;5050705;28;20078;-72
2022/03/20 02:33:28;;;;;;;26.55;16.73;;;;;;;3.09;66.85;103052.47;5051802;28;20044;-72
2022/03/20 02:35:55;;;;;;;29.02;17.25;;;;;;;3.09;66.59;103044.75;5051228;28;20100;-72
2022/03/20 02:38:20;;;;;;;26.40;16.90;;;;;;;3.11;67.00;103049.16;5051368;28;20103;-72
2022/03/20 02:40:46;;;;;;;28.25;17.40;;;;;;;2.98;67.35;103034.00;5051546;28;20171;-72
2022/03/20 02:43:12;;;;;;;29.27;17.80;;;;;;;3.09;66.33;103044.75;5051231;28;20029;-72
2022/03/20 02:45:38;;;;;;;29.98;17.65;;;;;;;3.08;66.77;103045.56;5051674;28;20040;-72
2022/03/20 02:48:04;;;;;;;28.60;17.55;;;;;;;3.03;66.45;103046.22;5052032;28;20439;-72
2022/03/20 02:50:34;;;;;;;29.35;18.05;;;;;;;3.02;66.57;103034.16;5050686;28;20067;-73
2022/03/20 02:53:01;;;;;;;29.40;17.48;;;;;;;3.00;66.99;103037.50;5051555;28;20025;-72
2022/03/20 02:55:37;;;;;;;30.63;18.33;;;;;;;2.98;67.28;103036.56;5051282;28;20488;-72
2022/03/20 02:58:05;;;;;;;31.15;18.83;;;;;;;2.95;67.09;103028.69;5051014;28;20531;-72
2022/03/20 03:00:32;;;;;;;32.05;18.38;;;;;;;2.91;67.00;103032.84;5051384;28;20435;-72
2022/03/20 03:02:59;;;;;;;31.52;17.85;;;;;;;2.90;66.88;103033.63;5051496;28;20025;-72
2022/03/20 03:05:28;;;;;;;30.10;17.88;;;;;;;2.90;67.01;103030.19;5050311;28;20017;-72
2022/03/20 03:11:01;;;;;;;29.30;18.23;;;;;;;2.93;66.26;103013.16;5050411;28;20444;-72
2022/03/20 03:13:31;;;;;;;29.25;17.90;;;;;;;2.90;66.52;103018.19;5051377;28;20108;-72
2022/03/20 03:15:59;;;;;;;26.98;18.02;;;;;;;2.87;66.72;103006.88;5051461;28;20637;-72
2022/03/20 03:18:26;;;;;;;31.70;19.02;;;;;;;2.86;66.95;103005.13;5050378;28;20424;-72
2022/03/20 03:20:52;;;;;;;31.55;18.45;;;;;;;2.83;67.10;103003.28;5051127;28;20115;-72
2022/03/20 03:23:18;;;;;;;34.58;19.55;;;;;;;2.78;66.53;103004.78;5051328;28;20064;-72
2022/03/20 03:25:43;;;;;;;29.17;19.17;;;;;;;2.68;66.48;102987.16;5050403;28;20163;-72
2022/03/20 03:28:10;;;;;;;30.20;19.05;;;;;;;2.71;67.53;102990.75;5051604;28;20499;-71
2022/03/20 03:30:37;;;;;;;32.67;19.80;;;;;;;2.69;67.19;102988.94;5051286;28;20521;-72
2022/03/20 03:33:02;;;;;;;33.72;20.13;;;;;;;2.64;67.21;102985.28;5050954;28;20108;-72
2022/03/20 03:35:42;;;;;;;32.20;19.52;;;;;;;2.62;67.51;102981.78;5050939;28;20104;-72
2022/03/20 03:38:13;;;;;;;35.45;20.48;;;;;;;2.59;67.70;102987.66;5051497;28;20036;-72
2022/03/20 03:40:39;;;;;;;36.25;21.27;;;;;;;2.58;68.01;102980.72;5050846;28;20492;-72
2022/03/20 03:43:05;;;;;;;31.35;20.00;;;;;;;2.56;67.82;102967.81;5053078;28;20033;-72
2022/03/20 03:45:31;;;;;;;34.75;22.20;;;;;;;2.52;67.30;102963.34;5054180;28;20021;-72
2022/03/20 03:47:57;;;;;;;36.00;20.83;;;;;;;2.51;67.55;102953.84;5055176;28;20029;-72
2022/03/20 03:50:22;;;;;;;33.03;21.77;;;;;;;2.54;67.91;102953.97;5054725;28;20365;-72
2022/03/20 03:52:48;;;;;;;34.40;21.60;;;;;;;2.54;67.63;102955.66;5054159;28;20082;-71
2022/03/20 03:55:14;;;;;;;36.58;21.85;;;;;;;2.48;67.49;102956.28;5054723;28;20511;-71
2022/03/20 03:57:44;;;;;;;37.70;21.38;;;;;;;2.45;67.40;102947.53;5054412;28;20033;-72
2022/03/20 04:00:10;;;;;;;35.65;21.45;;;;;;;2.41;67.66;102940.50;5054267;28;20104;-72
2022/03/20 04:02:36;;;;;;;42.50;22.88;;;;;;;2.52;67.26;102949.59;5054979;28;20032;-72
2022/03/20 04:05:01;;;;;;;37.58;22.05;;;;;;;2.46;66.95;102945.03;5054756;28;20029;-72
2022/03/20 04:07:27;;;;;;;37.13;22.13;;;;;;;2.41;67.50;102938.81;5053827;28;20045;-72
2022/03/20 04:09:52;;;;;;;33.72;21.13;;;;;;;2.37;67.48;102938.63;5054439;28;20082;-72
2022/03/20 04:12:18;;;;;;;37.30;23.55;;;;;;;2.32;68.13;102922.94;5054162;28;20496;-71
2022/03/20 04:14:43;;;;;;;39.78;22.02;;;;;;;2.32;68.59;102925.53;5053470;28;20029;-72
2022/03/20 04:17:10;;;;;;;32.05;22.08;;;;;;;2.26;68.27;102917.56;5054925;28;20021;-72
2022/03/20 04:19:35;;;;;;;37.30;22.55;;;;;;;2.22;68.63;102919.09;5054713;28;20021;-72
2022/03/20 04:22:01;;;;;;;37.38;22.55;;;;;;;2.20;68.68;102919.88;5053614;28;20021;-72
2022/03/20 04:24:26;;;;;;;37.13;21.60;;;;;;;2.19;68.86;102910.34;5053949;28;20029;-72
2022/03/20 04:26:53;;;;;;;38.20;22.17;;;;;;;2.19;68.44;102903.53;5054216;28;20086;-72
2022/03/20 04:29:20;;;;;;;42.67;23.52;;;;;;;2.13;69.02;102899.81;5053204;28;20384;-72
2022/03/20 04:31:46;;;;;;;39.58;22.63;;;;;;;2.07;69.87;102897.84;5054253;28;20023;-72
2022/03/20 04:34:12;;;;;;;37.65;22.83;;;;;;;2.04;70.00;102890.88;5054095;28;20108;-71
2022/03/20 04:36:38;;;;;;;38.65;21.80;;;;;;;2.01;69.91;102888.16;5053043;28;20497;-72
2022/03/20 04:39:03;;;;;;;41.22;23.48;;;;;;;1.92;69.76;102871.44;5054360;28;20091;-72
2022/03/20 04:41:28;;;;;;;38.47;23.23;;;;;;;1.96;70.25;102884.53;5053689;28;20124;-72
2022/03/20 04:43:54;;;;;;;39.85;22.60;;;;;;;1.88;69.57;102891.00;5053300;28;20032;-71
2022/03/20 04:46:20;;;;;;;41.00;22.20;;;;;;;1.90;69.84;102888.47;5053868;28;20041;-72
2022/03/20 04:59:43;;;;;;;36.47;22.65;;;;;;;1.73;70.43;102868.03;5053685;28;20102;-71
2022/03/20 05:02:08;;;;;;;40.17;24.15;;;;;;;1.72;70.77;102858.56;5053841;28;20025;-72
2022/03/20 05:04:33;;;;;;;41.85;23.98;;;;;;;1.70;71.13;102861.88;5052756;28;20358;-71
2022/03/20 05:06:58;;;;;;;42.92;23.48;;;;;;;1.70;70.58;102861.88;5053359;28;20025;-72
2022/03/20 05:14:55;;;;;;;41.22;23.48;;;;;;;1.56;70.45;102864.69;5053296;28;20387;-72
2022/03/20 05:17:20;;;;;;;38.53;24.08;;;;;;;1.52;71.19;102849.94;5052595;28;20036;-71
2022/03/20 05:19:45;;;;;;;40.72;24.05;;;;;;;1.48;71.41;102855.78;5053413;28;20017;-71
2022/03/20 05:22:11;;;;;;;42.88;24.75;;;;;;;1.43;70.80;102851.22;5053355;28;20150;-71
2022/03/20 05:24:37;;;;;;;43.55;23.90;;;;;;;1.47;71.55;102845.41;5051948;28;20040;-72
2022/03/20 05:27:04;;;;;;;39.25;24.65;;;;;;;1.41;71.29;102851.16;5053521;28;20025;-71
2022/03/20 05:29:30;;;;;;;38.45;23.23;;;;;;;1.41;71.41;102851.16;5052716;28;20076;-72
2022/03/20 05:31:56;;;;;;;41.15;23.67;;;;;;;1.28;71.96;102836.00;5052189;28;20127;-72
2022/03/20 05:34:23;;;;;;;39.10;24.20;;;;;;;1.35;72.00;102849.19;5052977;28;20083;-71
2022/03/20 05:36:49;;;;;;;41.53;24.02;;;;;;;1.34;71.27;102846.53;5052922;28;20024;-71
2022/03/20 05:39:15;;;;;;;39.15;23.17;;;;;;;1.30;72.30;102837.78;5052175;28;20040;-71
2022/03/20 05:41:46;;;;;;;40.83;23.27;;;;;;;1.30;71.46;102831.78;5052657;28;20043;-72
2022/03/20 05:44:11;;;;;;;39.63;23.42;;;;;;;1.26;71.77;102822.19;5052778;28;20385;-72
2022/03/20 05:46:38;;;;;;;43.28;25.50;;;;;;;1.32;71.22;102823.34;5052048;28;20028;-71
2022/03/20 05:49:05;;;;;;;39.22;23.00;;;;;;;1.30;71.78;102813.78;5053009;28;20028;-72
2022/03/20 05:51:31;;;;;;;40.88;23.80;;;;;;;1.31;71.84;102819.03;5052400;28;20060;-71
2022/03/20 05:53:57;;;;;;;41.72;24.58;;;;;;;1.30;71.51;102821.50;5051576;28;20033;-72
2022/03/20 05:59:07;;;;;;;43.05;22.00;;;;;;;1.34;70.64;102820.81;5052424;28;20052;-72
2022/03/20 06:01:32;;;;;;;38.90;23.48;;;;;;;1.28;70.29;102805.16;5052350;28;20388;-72
2022/03/20 06:03:58;;;;;;;39.05;22.83;;;;;;;1.35;70.61;102813.19;5052539;28;20057;-72
2022/03/20 06:06:23;;;;;;;34.90;22.13;;;;;;;1.40;69.55;102821.09;5051478;28;20025;-72
2022/03/20 06:08:49;;;;;;;38.80;22.23;;;;;;;1.37;70.69;102809.03;5052088;28;20120;-71
2022/03/20 06:11:14;;;;;;;40.97;23.00;;;;;;;1.44;69.70;102816.97;5052068;28;20118;-71
2022/03/20 06:13:39;;;;;;;42.20;22.77;;;;;;;1.50;69.20;102812.13;5051178;28;20044;-71
2022/03/20 06:16:08;;;;;;;37.70;22.30;;;;;;;1.52;69.77;102810.50;5052596;28;20049;-72
2022/03/20 06:18:33;;;;;;;37.53;22.48;;;;;;;1.51;68.72;102801.94;5052007;28;20024;-72
2022/03/20 06:20:58;;;;;;;39.28;22.08;;;;;;;1.55;68.18;102814.09;5051313;28;20029;-72
2022/03/20 06:23:24;;;;;;;36.63;21.77;;;;;;;1.55;68.53;102800.38;5051670;28;20025;-72
2022/03/20 06:25:51;;;;;;;37.95;21.50;;;;;;;1.58;68.31;102811.66;5051877;28;20538;-71
2022/03/20 06:28:17;;;;;;;36.67;20.67;;;;;;;1.56;68.01;102808.13;5051398;28;20087;-71
2022/03/20 06:30:43;;;;;;;36.28;21.33;;;;;;;1.59;67.82;102807.41;5051804;28;20036;-72
2022/03/20 06:33:09;;;;;;;36.13;20.73;;;;;;;1.63;67.82;102804.16;5052325;28;20094;-71
2022/03/20 06:35:35;;;;;;;35.58;20.70;;;;;;;1.72;67.25;102804.56;5051144;28;20096;-72
2022/03/20 06:38:00;;;;;;;34.28;19.92;;;;;;;1.83;65.71;102803.34;5051715;28;20120;-71
2022/03/20 06:40:26;;;;;;;36.55;21.55;;;;;;;1.99;65.85;102797.16;5051488;28;20064;-71
2022/03/20 06:42:52;;;;;;;36.72;20.70;;;;;;;2.19;65.51;102798.03;5051117;28;20025;-71
2022/03/20 06:45:20;;;;;;;34.65;21.17;;;;;;;2.38;64.62;102775.63;5051568;28;20078;-72
2022/03/20 06:47:45;;;;;;;34.50;20.90;;;;;;;2.49;63.49;102780.41;5051628;28;20021;-71
2022/03/20 06:50:13;;;;;;;36.72;20.80;;;;;;;2.57;63.04;102773.84;5050704;28;20025;-72
2022/03/20 06:52:39;;;;;;;32.97;20.00;;;;;;;2.73;63.37;102777.91;5051183;28;20451;-72
2022/03/20 06:55:06;;;;;;;40.15;20.40;;;;;;;2.84;62.66;102762.88;5051730;28;20051;-72
2022/03/20 06:57:31;;;;;;;34.67;20.50;;;;;;;2.99;62.20;102776.38;5050373;28;20056;-72
2022/03/20 06:59:59;;;;;;;35.42;19.63;;;;;;;3.10;61.46;102769.03;5051607;28;20048;-71
2022/03/20 07:02:25;;;;;;;40.28;21.23;;;;;;;3.20;60.91;102770.25;5050617;28;20075;-72
2022/03/20 07:04:51;;;;;;;31.88;19.38;;;;;;;3.25;60.51;102766.16;5051404;28;20029;-71
2022/03/20 07:07:21;;;;;;;34.28;19.83;;;;;;;3.28;59.04;102759.44;5051319;28;20112;-72
2022/03/20 07:09:46;;;;;;;35.80;19.63;;;;;;;3.32;59.48;102756.97;5050624;28;20037;-72
2022/03/20 07:12:12;;;;;;;31.77;20.27;;;;;;;3.37;59.00;102760.56;5051483;28;20365;-72
2022/03/20 07:14:38;;;;;;;35.88;20.40;;;;;;;3.38;59.11;102752.91;5051354;28;20552;-72
2022/03/20 07:17:10;;;;;;;31.27;19.90;;;;;;;3.44;59.84;102745.41;5052285;28;20032;-72
2022/03/20 07:19:37;;;;;;;30.52;17.75;;;;;;;3.49;57.64;102746.44;5058137;28;20032;-72
2022/03/20 07:22:05;;;;;;;33.20;19.83;;;;;;;3.48;57.49;102731.78;5058165;28;20029;-72
2022/03/20 07:24:31;;;;;;;34.50;20.75;;;;;;;3.54;57.87;102731.13;5056860;28;20036;-72
2022/03/20 07:29:40;;;;;;;32.47;18.67;;;;;;;3.62;56.32;102721.06;5057679;28;20083;-72
2022/03/20 07:32:06;;;;;;;37.20;20.48;;;;;;;3.69;56.92;102720.47;5057389;28;20052;-72
2022/03/20 07:34:36;;;;;;;33.88;19.55;;;;;;;3.83;56.30;102727.00;5057749;28;20025;-72
2022/03/20 07:37:03;;;;;;;34.40;19.52;;;;;;;3.87;56.17;102722.81;5058360;28;20025;-72
2022/03/20 07:39:30;;;;;;;31.13;19.75;;;;;;;3.88;56.18;102725.44;5056980;28;20036;-72
2022/03/20 07:41:55;;;;;;;35.50;21.77;;;;;;;3.86;56.60;102726.19;5057747;28;20107;-72
2022/03/20 07:44:22;;;;;;;33.00;19.27;;;;;;;3.78;55.23;102720.78;5057584;28;20111;-72
2022/03/20 07:46:48;;;;;;;32.05;19.50;;;;;;;3.73;56.02;102730.97;5057460;28;20048;-72
2022/03/20 07:49:14;;;;;;;37.78;19.88;;;;;;;3.72;56.90;102733.47;5057504;28;20389;-72
2022/03/20 07:51:40;;;;;;;31.23;19.42;;;;;;;3.66;54.84;102722.94;5056644;28;20037;-72
2022/03/20 07:54:05;;;;;;;29.35;18.70;;;;;;;3.67;55.78;102716.97;5057767;28;20500;-72
2022/03/20 07:56:34;;;;;;;30.83;18.95;;;;;;;3.66;55.17;102715.19;5057517;28;20029;-72
2022/03/20 07:59:00;;;;;;;31.00;18.85;;;;;;;3.74;54.94;102734.41;5056865;28;20025;-72
2022/03/20 08:01:25;;;;;;;33.13;19.40;;;;;;;3.69;55.30;102736.81;5057349;28;20027;-72
2022/03/20 08:03:51;;;;;;;31.42;19.17;;;;;;;3.62;56.98;102718.50;5057544;28;20104;-72
2022/03/20 08:06:16;;;;;;;33.20;18.83;;;;;;;3.61;55.61;102719.34;5057016;28;20029;-72
2022/03/20 08:08:42;;;;;;;34.55;19.63;;;;;;;3.61;56.69;102722.78;5057462;28;20086;-72
2022/03/20 08:11:08;;;;;;;32.70;19.50;;;;;;;3.63;56.21;102716.00;5057641;28;20386;-72
2022/03/20 08:13:34;;;;;;;30.92;18.40;;;;;;;3.66;55.90;102710.03;5056452;28;20028;-72
2022/03/20 08:16:00;;;;;;;30.98;18.58;;;;;;;3.74;55.78;102726.69;5057399;28;20025;-72
2022/03/20 08:18:26;;;;;;;33.05;19.38;;;;;;;3.79;55.92;102735.44;5057474;28;20033;-72
2022/03/20 08:20:51;;;;;;;33.58;19.30;;;;;;;3.84;55.70;102723.59;5056871;28;20032;-72
2022/03/20 08:23:17;;;;;;;28.15;19.15;;;;;;;3.85;55.15;102722.75;5057471;28;20381;-72
2022/03/20 08:25:42;;;;;;;30.73;19.00;;;;;;;3.81;55.61;102702.84;5057290;28;20495;-72
2022/03/20 08:28:12;;;;;;;34.40;19.55;;;;;;;3.86;55.17;102706.47;5056536;28;20082;-72
2022/03/20 08:30:40;;;;;;;30.80;19.50;;;;;;;3.92;54.93;102701.50;5053932;28;20039;-72
2022/03/20 08:33:05;;;;;;;31.17;18.52;;;;;;;3.97;54.89;102697.38;5054728;28;20029;-72
2022/03/20 08:35:31;;;;;;;34.72;19.67;;;;;;;4.07;56.07;102695.97;5053192;28;20036;-72
2022/03/20 08:37:56;;;;;;;32.58;19.45;;;;;;;4.16;54.51;102696.28;5054224;28;20029;-72
2022/03/20 08:40:23;;;;;;;31.73;19.15;;;;;;;4.20;54.81;102697.25;5053958;28;20036;-72
2022/03/20 08:42:53;;;;;;;33.53;19.33;;;;;;;4.15;56.02;102691.03;5053187;28;20040;-72
2022/03/20 08:45:23;;;;;;;32.85;19.52;;;;;;;4.07;54.91;102687.34;5053632;28;20025;-72
2022/03/20 08:47:49;;;;;;;31.33;18.58;;;;;;;4.06;55.73;102695.94;5052940;28;20392;-72
2022/03/20 08:50:16;;;;;;;31.70;19.42;;;;;;;4.05;56.05;102696.75;5053855;28;20021;-72
2022/03/20 08:52:44;;;;;;;30.08;18.67;;;;;;;4.06;54.59;102699.38;5053420;28;20393;-72
2022/03/20 08:55:10;;;;;;;33.72;19.38;;;;;;;4.10;56.23;102705.53;5052957;28;20499;-72
2022/03/20 08:57:41;;;;;;;32.15;19.52;;;;;;;4.19;55.83;102701.53;5053784;28;20032;-72
2022/03/20 09:00:08;;;;;;;35.13;19.58;;;;;;;4.32;55.26;102707.97;5054150;28;20043;-72
2022/03/20 09:02:33;;;;;;;33.38;19.05;;;;;;;4.34;54.75;102701.13;5052786;28;20021;-72
2022/03/20 09:04:59;;;;;;;32.55;19.70;;;;;;;4.33;53.87;102696.81;5053673;28;20083;-72
2022/03/20 09:07:24;;;;;;;32.33;18.25;;;;;;;4.35;53.59;102689.09;5053495;28;20029;-72
2022/03/20 09:09:49;;;;;;;30.70;19.20;;;;;;;4.43;53.28;102687.66;5052506;28;20028;-72
2022/03/20 09:12:14;;;;;;;34.25;19.42;;;;;;;4.55;53.56;102674.25;5053104;28;20120;-72
2022/03/20 09:14:40;;;;;;;32.10;19.33;;;;;;;4.85;52.39;102664.81;5053230;28;20420;-72
2022/03/20 09:19:49;;;;;;;32.30;18.67;;;;;;;5.68;51.13;102661.91;5053311;28;20090;-72
2022/03/20 09:22:16;;;;;;;33.47;20.02;;;;;;;6.35;50.48;102654.97;5053395;28;20033;-72
2022/03/20 09:24:42;;;;;;;33.05;20.60;;;;;;;6.76;48.02;102644.59;5052228;28;20455;-72
2022/03/20 09:27:07;;;;;;;30.67;19.52;;;;;;;6.90;47.63;102637.13;5053446;28;20109;-72
2022/03/20 09:29:32;;;;;;;32.92;20.20;;;;;;;6.93;48.81;102640.66;5053004;28;20457;-72
2022/03/20 09:31:58;;;;;;;34.13;20.25;;;;;;;6.92;47.61;102638.03;5052369;28;20419;-72
2022/03/20 09:34:23;;;;;;;33.80;20.45;;;;;;;6.76;47.59;102639.44;5052949;28;20112;-72
2022/03/20 09:36:48;;;;;;;30.65;20.67;;;;;;;6.44;48.00;102625.78;5052894;28;20061;-72
2022/03/20 09:39:13;;;;;;;32.03;19.92;;;;;;;6.25;48.39;102627.97;5052085;28;20384;-72
2022/03/20 09:41:43;;;;;;;32.75;20.35;;;;;;;6.15;47.85;102625.09;5052088;28;20041;-72
2022/03/20 09:44:10;;;;;;;32.10;19.80;;;;;;;6.33;48.08;102623.81;5051990;28;20461;-72
2022/03/20 09:46:35;;;;;;;31.58;20.98;;;;;;;6.58;47.31;102619.19;5052846;28;20032;-72
2022/03/20 09:49:04;;;;;;;40.80;21.48;;;;;;;6.73;47.57;102618.63;5052884;28;20028;-72
2022/03/20 09:51:29;;;;;;;36.53;20.98;;;;;;;6.98;46.54;102614.81;5051639;28;20118;-72
2022/03/20 09:53:55;;;;;;;35.20;21.85;;;;;;;7.20;47.18;102610.94;5052630;28;20028;-72
2022/03/20 09:56:20;;;;;;;33.80;21.00;;;;;;;7.32;46.71;102612.84;5052616;28;20056;-72
2022/03/20 09:58:45;;;;;;;35.28;21.75;;;;;;;7.49;45.57;102624.44;5051867;28;20025;-72
2022/03/20 10:01:11;;;;;;;36.55;21.85;;;;;;;7.50;45.77;102615.78;5052230;28;20476;-72
2022/03/20 10:03:37;;;;;;;36.00;21.00;;;;;;;7.50;45.89;102621.84;5052656;28;20037;-72
2022/03/20 10:06:17;;;;;;;35.38;20.98;;;;;;;7.48;47.89;102617.47;5051886;28;20025;-72
2022/03/20 10:09:00;;;;;;;36.85;21.88;;;;;;;7.39;47.61;102614.72;5052211;28;20028;-72
2022/03/20 10:11:26;;;;;;;36.75;22.15;;;;;;;7.31;46.35;102622.38;5052275;28;20033;-72
2022/03/20 10:14:17;;;;;;;33.55;21.30;;;;;;;7.30;47.78;102624.94;5051246;28;20530;-72
2022/03/20 10:17:16;;;;;;;37.00;22.35;;;;;;;7.26;47.62;102616.22;5051938;28;20477;-72
2022/03/20 10:19:42;;;;;;;37.03;23.00;;;;;;;7.20;47.17;102619.56;5050709;28;20542;-72
2022/03/20 10:22:09;;;;;;;42.75;24.02;;;;;;;7.06;47.26;102614.97;5052446;28;20061;-72
2022/03/20 10:24:40;;;;;;;36.58;24.48;;;;;;;6.92;48.10;102617.28;5052130;28;20114;-72
2022/03/20 10:27:08;;;;;;;38.95;24.00;;;;;;;6.82;47.46;102617.94;5051687;28;20037;-72
2022/03/20 10:29:35;;;;;;;37.95;23.10;;;;;;;6.90;48.37;102611.19;5051606;28;20025;-72
2022/03/20 10:32:05;;;;;;;37.38;24.08;;;;;;;7.22;49.18;102602.31;5051773;28;20365;-72
2022/03/20 10:34:48;;;;;;;37.83;23.48;;;;;;;7.76;48.78;102605.84;5051073;28;20031;-72
2022/03/20 10:37:15;;;;;;;45.00;24.23;;;;;;;8.06;46.60;102618.44;5051938;28;20071;-73
2022/03/20 10:39:42;;;;;;;40.47;26.80;;;;;;;8.30;48.47;102607.53;5051697;28;20290;-72
2022/03/20 10:42:12;;;;;;;39.42;25.90;;;;;;;8.55;49.59;102608.78;5051030;28;20071;-72
2022/03/20 10:44:38;;;;;;;34.45;22.83;;;;;;;8.57;49.46;102614.00;5051789;28;20414;-72
2022/03/20 10:47:10;;;;;;;39.10;25.73;;;;;;;8.33;50.91;102601.50;5052110;28;20028;-73
2022/03/20 10:49:36;;;;;;;38.47;25.77;;;;;;;8.31;51.41;102614.50;5050869;28;20392;-73
2022/03/20 10:52:07;;;;;;;39.05;25.42;;;;;;;8.31;52.34;102614.50;5050718;28;20563;-73
2022/03/20 10:54:53;;;;;;;40.30;27.33;;;;;;;8.39;50.85;102622.41;5050459;28;20090;-72
2022/03/20 10:57:19;;;;;;;45.08;26.25;;;;;;;8.27;51.88;102623.06;5051691;28;20435;-72
2022/03/20 10:59:58;;;;;;;42.55;25.08;;;;;;;8.29;51.61;102621.38;5051531;28;20059;-72
2022/03/20 11:02:25;;;;;;;40.15;25.60;;;;;;;8.29;52.46;102621.38;5050622;28;20031;-73
2022/03/20 11:04:51;;;;;;;41.22;26.20;;;;;;;8.34;53.33;102624.94;5051199;28;20025;-72
2022/03/20 11:07:17;;;;;;;43.42;27.13;;;;;;;8.24;53.99;102625.66;5051477;28;20035;-73
2022/03/20 11:09:47;;;;;;;43.33;27.60;;;;;;;8.10;54.50;102635.81;5050272;28;20472;-73
2022/03/20 11:12:18;;;;;;;41.42;27.10;;;;;;;7.96;55.53;102645.13;5051162;28;20028;-72
2022/03/20 11:14:45;;;;;;;42.35;27.05;;;;;;;7.85;56.30;102638.91;5051131;28;20517;-73
2022/03/20 11:17:17;;;;;;;43.88;27.10;;;;;;;7.80;57.24;102638.78;5050555;28;20025;-72
2022/03/20 11:19:49;;;;;;;40.42;26.75;;;;;;;7.87;56.54;102647.56;5051350;28;20076;-72
2022/03/20 11:22:17;;;;;;;40.95;26.95;;;;;;;7.90;57.60;102637.22;5051249;28;20071;-72
2022/03/20 11:24:46;;;;;;;41.78;27.83;;;;;;;7.80;57.36;102632.72;5050483;28;20051;-73
2022/03/20 11:27:13;;;;;;;45.33;27.70;;;;;;;7.69;58.16;102637.75;5051244;28;20141;-73
2022/03/20 11:29:50;;;;;;;42.67;27.38;;;;;;;7.63;58.08;102635.91;5050247;28;20116;-73
2022/03/20 11:32:18;;;;;;;42.90;27.20;;;;;;;7.66;58.24;102633.38;5051382;28;20036;-73
2022/03/20 11:34:45;;;;;;;44.28;27.30;;;;;;;7.73;59.02;102635.22;5051185;28;20053;-73
2022/03/20 11:37:12;;;;;;;39.92;26.92;;;;;;;7.80;59.06;102641.41;5050349;28;20032;-72
2022/03/20 11:39:59;;;;;;;42.53;26.75;;;;;;;7.77;58.63;102624.88;5051028;28;20033;-72
2022/03/20 11:42:28;;;;;;;41.55;27.40;;;;;;;7.77;58.53;102633.56;5050453;28;20384;-73
2022/03/20 11:45:00;;;;;;;42.35;27.17;;;;;;;7.59;58.90;102643.63;5050174;28;20017;-73
2022/03/20 11:47:29;;;;;;;40.67;26.50;;;;;;;7.39;59.03;102640.66;5051019;28;20021;-73
2022/03/20 11:50:16;;;;;;;41.03;27.55;;;;;;;7.28;59.19;102651.72;5050930;28;20079;-73